Time;durP1;ratioP1;P1;durP2;ratioP2;P2;SDS_P1;SDS_P2;PMS_P1;PMS_P2;Temp;Humidity;BMP_temperature;BMP_pressure;BME280_temperature;BME280_humidity;BME280_pressure;Samples;Min_cycle;Max_cycle;Signal;HPM_P1;HPM_P2
2022/01/11 00:00:35;;;;;;;;;31.00;25.67;;;;;4.46;78.25;102281.63;5118732;27;45321;-81
2022/01/11 00:03:04;;;;;;;;;31.33;26.00;;;;;4.45;78.20;102274.59;5119417;27;45230;-81
2022/01/11 00:05:37;;;;;;;;;27.67;23.00;;;;;4.11;78.17;102224.84;5119259;27;45218;-81
2022/01/11 00:08:03;;;;;;;;;24.75;23.25;;;;;3.86;78.52;102190.34;5118995;27;46437;-80
2022/01/11 00:10:33;;;;;;;;;25.00;22.00;;;;;4.02;78.85;102242.59;5118668;27;45384;-80
2022/01/11 00:13:00;;;;;;;;;29.67;26.00;;;;;3.83;79.21;102229.28;5128953;27;45505;-80
2022/01/11 00:15:27;;;;;;;;;25.33;23.33;;;;;3.96;79.44;102277.00;5132861;27;45316;-79
2022/01/11 00:17:53;;;;;;;;;30.33;24.00;;;;;3.88;79.99;102279.97;5118673;27;45514;-80
2022/01/11 00:20:20;;;;;;;;;23.00;22.67;;;;;3.84;80.37;102278.91;5118359;27;45369;-81
2022/01/11 00:25:25;;;;;;;;;28.67;25.00;;;;;3.74;80.07;102254.81;5118572;27;45372;-77
2022/01/11 00:27:50;;;;;;;;;23.00;19.67;;;;;3.93;80.44;102282.06;5118173;27;45807;-78
2022/01/11 00:30:15;;;;;;;;;25.67;22.00;;;;;3.85;80.41;102271.97;5118367;27;45207;-80
2022/01/11 00:32:50;;;;;;;;;32.67;21.67;;;;;3.77;80.74;102262.81;5118471;27;45313;-80
2022/01/11 00:35:17;;;;;;;;;22.67;22.67;;;;;3.80;80.66;102253.44;5099887;27;45475;-81
2022/01/11 00:37:44;;;;;;;;;36.33;33.00;;;;;3.96;80.54;102268.28;5118466;27;46532;-80
2022/01/11 00:40:10;;;;;;;;;27.33;25.67;;;;;3.97;80.77;102268.38;5118577;27;45237;-81
2022/01/11 00:42:36;;;;;;;;;33.00;25.67;;;;;3.96;80.00;102260.47;5118414;27;45274;-82
2022/01/11 00:45:09;;;;;;;;;25.67;25.67;;;;;4.00;80.22;102262.44;5118435;27;45282;-79
2022/01/11 00:47:35;;;;;;;;;25.33;22.00;;;;;4.07;80.11;102266.31;5117910;27;46501;-80
2022/01/11 00:50:01;;;;;;;;;31.33;26.33;;;;;4.13;79.85;102264.94;5117948;27;45486;-80
2022/01/11 00:52:26;;;;;;;;;30.00;26.67;;;;;4.13;79.72;102256.22;5118383;27;45308;-81
2022/01/11 00:54:52;;;;;;;;;30.33;26.33;;;;;4.15;79.70;102259.81;5118070;27;45444;-78
2022/01/11 00:57:17;;;;;;;;;24.33;19.67;;;;;4.13;79.20;102258.84;5121206;27;46458;-81
2022/01/11 00:59:43;;;;;;;;;31.67;26.67;;;;;4.04;79.48;102258.31;5138688;27;45389;-80
2022/01/11 01:02:08;;;;;;;;;35.00;28.00;;;;;3.97;80.07;102247.50;5138335;27;45260;-79
2022/01/11 01:04:33;;;;;;;;;34.33;29.67;;;;;3.79;79.72;102212.56;5138730;27;45477;-81
2022/01/11 01:06:59;;;;;;;;;33.67;31.33;;;;;4.14;79.47;102278.88;5138318;27;45634;-81
2022/01/11 01:09:29;;;;;;;;;35.00;29.00;;;;;4.18;79.84;102276.53;5140269;27;45191;-81
2022/01/11 01:11:55;;;;;;;;;43.67;32.33;;;;;4.11;79.79;102271.81;5142153;27;45390;-81
2022/01/11 01:14:21;;;;;;;;;29.33;27.67;;;;;4.24;79.59;102297.75;5142188;27;45281;-79
2022/01/11 01:16:47;;;;;;;;;33.33;28.33;;;;;4.23;79.49;102282.03;5141573;27;45471;-78
2022/01/11 01:19:12;;;;;;;;;39.67;36.00;;;;;4.13;79.16;102269.28;5141844;27;45424;-79
2022/01/11 01:21:38;;;;;;;;;45.33;39.67;;;;;4.26;79.33;102290.03;5140756;27;45446;-76
2022/01/11 01:24:08;;;;;;;;;32.33;25.67;;;;;4.21;79.23;102292.38;5121479;27;45342;-79
2022/01/11 01:26:34;;;;;;;;;48.00;38.33;;;;;4.26;79.63;102298.75;5121094;27;47535;-80
2022/01/11 01:29:00;;;;;;;;;43.33;32.67;;;;;4.19;79.37;102273.16;5121053;27;45285;-81
2022/01/11 01:31:27;;;;;;;;;40.67;34.67;;;;;4.13;79.37;102246.69;5121198;27;45299;-81
2022/01/11 01:33:54;;;;;;;;;33.67;31.67;;;;;4.22;79.21;102268.09;5121215;27;45329;-80
2022/01/11 01:36:19;;;;;;;;;40.67;38.67;;;;;4.17;78.79;102289.50;5120852;27;46181;-81
2022/01/11 01:38:45;;;;;;;;;34.33;30.00;;;;;3.94;79.21;102268.19;5121061;27;45308;-81
2022/01/11 01:41:19;;;;;;;;;46.67;32.67;;;;;3.83;79.18;102255.34;5121184;27;45218;-81
2022/01/11 01:43:46;;;;;;;;;48.33;32.33;;;;;3.99;80.05;102295.44;5121291;27;45354;-78
2022/01/11 01:46:13;;;;;;;;;37.67;35.67;;;;;3.85;79.90;102278.09;5120733;27;45542;-78
2022/01/11 01:48:38;;;;;;;;;38.67;34.33;;;;;3.94;79.40;102309.03;5120730;27;45257;-78
2022/01/11 01:51:06;;;;;;;;;40.33;34.00;;;;;4.00;79.70;102320.72;5121067;27;45355;-77
2022/01/11 01:53:37;;;;;;;;;34.00;33.67;;;;;3.93;80.12;102294.19;5121209;27;45422;-79
2022/01/11 01:56:03;;;;;;;;;34.33;29.33;;;;;3.79;79.61;102259.47;5120657;27;46348;-81
2022/01/11 01:58:29;;;;;;;;;34.33;26.00;;;;;3.98;79.61;102275.38;5120662;27;45213;-81
2022/01/11 02:01:02;;;;;;;;;35.67;31.00;;;;;4.07;79.08;102284.56;5120327;27;45525;-80
2022/01/11 02:03:29;;;;;;;;;35.33;32.33;;;;;4.26;78.63;102318.72;5121015;27;45354;-80
2022/01/11 02:05:56;;;;;;;;;30.00;26.00;;;;;4.06;78.57;102311.44;5139671;27;45374;-79
2022/01/11 02:08:23;;;;;;;;;34.67;31.33;;;;;3.84;79.48;102298.84;5141416;27;45960;-80
2022/01/11 02:10:49;;;;;;;;;17.67;16.67;;;;;3.95;79.43;102335.19;5141605;27;45302;-79
2022/01/11 02:13:15;;;;;;;;;34.67;32.67;;;;;3.75;79.65;102295.69;5141513;27;45234;-78
2022/01/11 02:15:40;;;;;;;;;45.33;38.00;;;;;3.92;79.41;102329.78;5141065;27;45239;-79
2022/01/11 02:18:22;;;;;;;;;32.33;28.67;;;;;3.94;79.51;102335.09;5141471;27;45274;-81
2022/01/11 02:20:50;;;;;;;;;30.00;29.33;;;;;3.90;79.38;102320.06;5141015;27;45347;-80
2022/01/11 02:23:18;;;;;;;;;31.33;27.67;;;;;3.95;79.03;102331.66;5141408;27;45227;-79
2022/01/11 02:25:44;;;;;;;;;34.00;30.67;;;;;3.70;79.20;102326.69;5140864;27;46132;-80
2022/01/11 02:28:13;;;;;;;;;27.33;27.33;;;;;3.71;80.10;102333.69;5141046;27;45265;-80
2022/01/11 02:30:39;;;;;;;;;26.67;24.00;;;;;3.64;80.33;102324.63;5141173;27;45323;-78
2022/01/11 02:33:10;;;;;;;;;25.33;23.67;;;;;3.72;79.53;102331.19;5141228;27;45380;-80
2022/01/11 02:35:36;;;;;;;;;26.00;22.67;;;;;3.75;79.13;102330.47;5140747;27;45391;-79
2022/01/11 02:38:01;;;;;;;;;30.00;26.00;;;;;3.81;79.54;102336.03;5140767;27;45401;-80
2022/01/11 02:40:27;;;;;;;;;26.67;21.33;;;;;3.78;78.91;102333.25;5141012;27;45299;-81
2022/01/11 02:42:53;;;;;;;;;28.00;26.00;;;;;3.66;79.19;102323.00;5140998;27;45453;-80
2022/01/11 02:45:20;;;;;;;;;31.33;26.00;;;;;3.67;79.49;102322.19;5140655;27;46405;-81
2022/01/11 02:47:47;;;;;;;;;32.67;25.00;;;;;3.76;78.94;102342.69;5135205;27;45252;-78
2022/01/11 02:50:15;;;;;;;;;26.00;25.00;;;;;3.70;79.20;102335.41;5119964;27;45287;-78
2022/01/11 02:52:41;;;;;;;;;31.33;26.67;;;;;3.85;79.16;102338.03;5120274;27;45309;-78
2022/01/11 02:55:13;;;;;;;;;23.00;20.67;;;;;3.86;78.62;102332.03;5119911;27;46115;-78
2022/01/11 02:57:38;;;;;;;;;29.67;27.33;;;;;3.83;78.44;102342.28;5119746;27;45396;-78
2022/01/11 03:00:15;;;;;;;;;22.00;19.33;;;;;3.69;78.76;102337.91;5119661;27;45571;-79
2022/01/11 03:02:41;;;;;;;;;33.00;26.33;;;;;3.64;79.52;102350.69;5119700;27;45462;-79
2022/01/11 03:05:10;;;;;;;;;35.33;25.67;;;;;3.57;79.14;102338.06;5100817;27;46699;-80
2022/01/11 03:07:35;;;;;;;;;34.33;25.67;;;;;3.36;79.27;102306.41;5119837;27;45338;-78
2022/01/11 03:10:08;;;;;;;;;24.67;20.33;;;;;3.53;79.19;102328.25;5119794;27;45853;-80
2022/01/11 03:12:35;;;;;;;;;22.67;20.67;;;;;3.58;78.79;102342.47;5119635;27;45425;-80
2022/01/11 03:15:00;;;;;;;;;32.33;28.33;;;;;3.56;78.97;102345.81;5119645;27;45740;-80
2022/01/11 03:17:26;;;;;;;;;26.00;23.67;;;;;3.69;78.84;102356.16;5119477;27;45152;-80
2022/01/11 03:19:53;;;;;;;;;22.33;19.00;;;;;3.76;78.50;102354.84;5119727;27;45261;-80
2022/01/11 03:22:19;;;;;;;;;31.33;19.33;;;;;3.69;79.01;102348.34;5119551;27;45328;-81
2022/01/11 03:24:44;;;;;;;;;30.00;28.33;;;;;3.71;78.54;102346.72;5119077;27;46624;-80
2022/01/11 03:27:10;;;;;;;;;25.33;22.67;;;;;3.54;78.19;102324.88;5119285;27;45304;-81
2022/01/11 03:29:37;;;;;;;;;24.67;23.00;;;;;3.61;78.48;102332.22;5122125;27;45573;-79
2022/01/11 03:32:05;;;;;;;;;24.00;20.33;;;;;3.53;78.46;102320.44;5139730;27;45380;-81
2022/01/11 03:34:31;;;;;;;;;26.00;23.00;;;;;3.68;79.03;102337.00;5140048;27;47083;-80
2022/01/11 03:36:58;;;;;;;;;26.67;23.33;;;;;3.78;78.33;102348.91;5139875;27;45384;-78
2022/01/11 03:39:27;;;;;;;;;26.00;21.67;;;;;3.63;78.18;102332.31;5140269;27;45375;-79
2022/01/11 03:41:52;;;;;;;;;24.33;21.33;;;;;3.67;78.25;102348.25;5140081;27;45368;-77
2022/01/11 03:44:18;;;;;;;;;23.33;23.00;;;;;3.79;78.61;102365.44;5120990;27;48285;-78
2022/01/11 03:46:44;;;;;;;;;25.00;21.00;;;;;3.71;78.85;102355.44;5139518;27;45356;-78
2022/01/11 03:49:09;;;;;;;;;20.67;17.00;;;;;3.76;78.46;102365.25;5139623;27;45283;-78
2022/01/11 03:51:38;;;;;;;;;25.00;22.00;;;;;3.74;78.34;102359.97;5139839;27;45245;-78
2022/01/11 03:54:11;;;;;;;;;36.00;29.00;;;;;3.75;77.77;102374.78;5139554;27;45572;-78
2022/01/11 03:56:37;;;;;;;;;29.33;22.33;;;;;3.65;78.53;102375.03;5139566;27;45387;-80
2022/01/11 03:59:06;;;;;;;;;23.00;20.67;;;;;3.63;78.83;102374.00;5139774;27;45300;-79
2022/01/11 04:01:33;;;;;;;;;24.33;19.00;;;;;3.52;78.43;102357.72;5139516;27;45309;-78
2022/01/11 04:03:58;;;;;;;;;29.67;26.33;;;;;3.64;78.59;102370.63;5131645;27;45465;-78
2022/01/11 04:06:25;;;;;;;;;27.33;20.00;;;;;3.39;78.36;102319.59;5100107;27;45416;-78
2022/01/11 04:08:51;;;;;;;;;30.67;25.67;;;;;3.61;78.88;102344.38;5118883;27;45456;-79
2022/01/11 04:11:17;;;;;;;;;27.00;23.67;;;;;3.80;78.71;102380.25;5118861;27;45166;-78
2022/01/11 04:13:43;;;;;;;;;28.33;25.00;;;;;3.71;78.24;102367.56;5122945;27;45495;-77
2022/01/11 04:16:08;;;;;;;;;31.67;25.33;;;;;3.60;78.64;102366.03;5139532;27;45206;-77
2022/01/11 04:18:34;;;;;;;;;27.33;23.67;;;;;3.47;78.67;102366.06;5139669;27;45238;-80
2022/01/11 04:20:59;;;;;;;;;26.67;22.00;;;;;3.40;79.57;102367.41;5139729;27;45287;-79
2022/01/11 04:23:26;;;;;;;;;31.67;23.33;;;;;3.37;79.55;102365.50;5139101;27;45402;-79
2022/01/11 04:25:51;;;;;;;;;29.00;26.67;;;;;3.29;79.70;102339.78;5138988;27;45387;-79
2022/01/11 04:28:17;;;;;;;;;25.33;22.67;;;;;3.46;79.28;102373.00;5139587;27;45328;-78
2022/01/11 04:30:42;;;;;;;;;24.33;24.33;;;;;3.46;79.30;102361.69;5139603;27;45408;-79
2022/01/11 04:33:08;;;;;;;;;18.33;18.33;;;;;3.24;79.16;102338.59;5139122;27;45605;-79
2022/01/11 04:35:33;;;;;;;;;29.33;26.33;;;;;3.46;79.46;102374.69;5139257;27;45340;-78
2022/01/11 04:37:59;;;;;;;;;30.00;27.67;;;;;3.47;79.64;102377.41;5139246;27;45317;-79
2022/01/11 04:40:24;;;;;;;;;37.00;37.00;;;;;3.36;79.85;102370.63;5139193;27;45550;-80
2022/01/11 04:42:50;;;;;;;;;28.33;25.33;;;;;3.18;79.65;102346.03;5138721;27;45433;-79
2022/01/11 04:45:16;;;;;;;;;30.67;22.67;;;;;3.34;79.80;102365.28;5123408;27;45453;-79
2022/01/11 04:47:45;;;;;;;;;24.33;20.33;;;;;3.33;79.17;102358.28;5142760;27;45229;-80
2022/01/11 04:50:11;;;;;;;;;37.33;28.33;;;;;3.27;79.00;102365.75;5123945;27;45502;-78
2022/01/11 04:52:37;;;;;;;;;24.00;20.67;;;;;3.27;79.85;102368.34;5142650;27;46528;-78
2022/01/11 04:55:03;;;;;;;;;42.33;33.00;;;;;3.09;79.69;102338.53;5142356;27;45592;-80
2022/01/11 04:57:29;;;;;;;;;33.33;26.67;;;;;2.99;79.63;102329.25;5142447;27;45316;-79
2022/01/11 04:59:54;;;;;;;;;26.00;23.67;;;;;3.33;79.94;102396.47;5137037;27;45328;-81
2022/01/11 05:02:20;;;;;;;;;32.67;26.67;;;;;3.32;79.45;102398.16;5121379;27;46613;-80
2022/01/11 05:04:45;;;;;;;;;36.67;30.33;;;;;3.24;79.30;102378.53;5121702;27;45448;-79
2022/01/11 05:07:10;;;;;;;;;31.00;25.67;;;;;3.46;78.92;102399.06;5121965;27;45320;-81
2022/01/11 05:09:36;;;;;;;;;34.67;31.33;;;;;3.24;78.67;102368.13;5121791;27;45258;-78
2022/01/11 05:12:01;;;;;;;;;34.00;25.67;;;;;3.32;78.69;102399.88;5121130;27;47333;-78
2022/01/11 05:14:27;;;;;;;;;38.00;28.00;;;;;3.19;78.82;102398.19;5121819;27;45300;-79
2022/01/11 05:16:52;;;;;;;;;34.00;29.00;;;;;3.00;78.60;102383.09;5121625;27;45461;-79
2022/01/11 05:19:17;;;;;;;;;19.67;14.67;;;;;3.03;78.63;102400.63;5121968;27;45186;-79
2022/01/11 05:21:43;;;;;;;;;31.33;23.00;;;;;3.03;79.49;102400.63;5102510;27;47112;-79
2022/01/11 05:24:09;;;;;;;;;28.33;24.67;;;;;3.04;79.80;102394.59;5102726;27;45239;-80
2022/01/11 05:26:35;;;;;;;;;30.00;26.00;;;;;3.04;79.05;102382.50;5121479;27;45396;-79
2022/01/11 05:29:01;;;;;;;;;40.33;32.67;;;;;2.91;78.58;102346.06;5121495;27;45273;-79
2022/01/11 05:31:26;;;;;;;;;33.67;30.00;;;;;2.95;78.69;102352.38;5121398;27;45527;-78
2022/01/11 05:33:52;;;;;;;;;30.33;27.67;;;;;3.20;78.56;102407.81;5121315;27;45356;-78
2022/01/11 05:36:17;;;;;;;;;31.00;24.67;;;;;3.14;79.04;102395.28;5124898;27;45346;-79
2022/01/11 05:38:43;;;;;;;;;27.33;26.33;;;;;3.13;78.83;102388.28;5129594;27;45409;-79
2022/01/11 05:41:10;;;;;;;;;28.67;24.33;;;;;3.30;78.08;102420.63;5128888;27;45331;-78
2022/01/11 05:43:36;;;;;;;;;36.33;30.33;;;;;3.27;78.13;102422.13;5128485;27;45156;-80
2022/01/11 05:46:06;;;;;;;;;19.67;19.67;;;;;3.37;77.98;102442.75;5128052;27;45263;-79
2022/01/11 05:48:32;;;;;;;;;20.00;15.00;;;;;3.36;77.68;102427.94;5129775;27;45441;-79
2022/01/11 05:51:01;;;;;;;;;28.33;27.00;;;;;3.22;77.54;102407.91;5135011;27;45365;-79
2022/01/11 05:53:26;;;;;;;;;42.67;30.33;;;;;2.99;77.76;102365.69;5142295;27;45254;-78
2022/01/11 05:55:52;;;;;;;;;23.00;22.00;;;;;3.05;77.81;102388.59;5160287;27;44605;-80
2022/01/11 05:58:17;;;;;;;;;38.00;35.33;;;;;2.93;77.65;102369.59;5150315;27;45201;-79
2022/01/11 06:00:43;;;;;;;;;30.67;26.00;;;;;3.22;78.51;102427.03;5142043;27;46100;-80
2022/01/11 06:03:08;;;;;;;;;41.67;27.00;;;;;3.25;77.74;102426.31;5142406;27;45289;-81
2022/01/11 06:05:38;;;;;;;;;32.33;29.00;;;;;3.21;77.85;102432.16;5142432;27;45256;-78
2022/01/11 06:08:04;;;;;;;;;34.33;27.33;;;;;2.99;77.98;102411.66;5142169;27;45482;-79
2022/01/11 06:10:30;;;;;;;;;35.33;34.33;;;;;3.08;78.00;102449.59;5148123;27;45573;-76
2022/01/11 06:12:55;;;;;;;;;33.67;30.00;;;;;2.86;78.02;102407.31;5144346;27;45391;-78
2022/01/11 06:15:21;;;;;;;;;31.33;25.00;;;;;3.07;77.78;102452.06;5141714;27;45234;-78
2022/01/11 06:17:46;;;;;;;;;32.33;27.00;;;;;3.17;77.71;102467.53;5141659;27;45368;-78
2022/01/11 06:20:11;;;;;;;;;37.00;26.33;;;;;3.11;77.46;102451.50;5141384;27;45247;-78
2022/01/11 06:22:37;;;;;;;;;37.33;30.33;;;;;3.06;77.26;102437.25;5141287;27;45227;-77
2022/01/11 06:25:05;;;;;;;;;26.33;24.67;;;;;3.18;76.97;102451.09;5141338;27;45333;-80
2022/01/11 06:27:32;;;;;;;;;31.33;25.33;;;;;3.23;76.79;102460.09;5135221;27;45377;-78
2022/01/11 06:29:57;;;;;;;;;35.67;32.33;;;;;3.19;77.40;102457.19;5124060;27;45464;-77
2022/01/11 06:32:23;;;;;;;;;32.67;28.67;;;;;3.08;75.85;102454.81;5108451;27;45869;-79
2022/01/11 06:34:48;;;;;;;;;34.33;31.00;;;;;2.98;76.99;102447.19;5140893;27;45303;-79
2022/01/11 06:37:13;;;;;;;;;30.67;26.67;;;;;2.68;76.77;102404.41;5141024;27;45298;-78
2022/01/11 06:39:39;;;;;;;;;34.00;26.00;;;;;2.71;77.10;102435.88;5141242;27;46159;-86
2022/01/11 06:42:05;;;;;;;;;38.00;31.00;;;;;2.63;77.17;102465.69;5122534;27;45439;-82
2022/01/11 06:44:31;;;;;;;;;33.33;30.33;;;;;2.44;76.96;102471.34;5125579;27;45423;-77
2022/01/11 06:46:56;;;;;;;;;42.00;29.00;;;;;2.31;77.95;102452.19;5125330;27;45230;-79
2022/01/11 06:49:22;;;;;;;;;38.33;28.33;;;;;2.44;78.45;102488.66;5119678;27;46209;-80
2022/01/11 06:51:47;;;;;;;;;28.33;25.67;;;;;2.27;78.47;102453.69;5119734;27;45355;-77
2022/01/11 06:54:13;;;;;;;;;31.67;27.67;;;;;2.29;79.00;102455.59;5119828;27;45459;-78
2022/01/11 06:56:39;;;;;;;;;44.00;29.33;;;;;2.26;77.80;102468.38;5126358;27;45481;-79
2022/01/11 06:59:05;;;;;;;;;43.00;32.00;;;;;2.14;78.88;102445.81;5139920;27;45575;-80
2022/01/11 07:01:32;;;;;;;;;35.00;32.67;;;;;2.34;78.58;102470.63;5139904;27;45321;-82
2022/01/11 07:03:57;;;;;;;;;44.67;35.67;;;;;2.33;78.39;102472.31;5140497;27;45521;-80
2022/01/11 07:06:23;;;;;;;;;33.33;29.33;;;;;2.25;78.07;102483.88;5139530;27;45406;-82
2022/01/11 07:08:48;;;;;;;;;37.67;35.33;;;;;2.10;79.17;102472.41;5140100;27;46558;-79
2022/01/11 07:11:14;;;;;;;;;36.67;32.33;;;;;2.14;78.94;102475.34;5140130;27;45365;-79
2022/01/11 07:13:39;;;;;;;;;35.00;31.67;;;;;2.00;79.13;102438.00;5140249;27;45293;-78
2022/01/11 07:16:05;;;;;;;;;29.00;28.00;;;;;1.85;78.50;102415.22;5140232;27;45431;-78
2022/01/11 07:18:30;;;;;;;;;34.00;31.00;;;;;2.32;78.68;102498.19;5121082;27;47138;-77
2022/01/11 07:20:55;;;;;;;;;44.67;35.33;;;;;2.35;78.32;102503.63;5139976;27;45713;-77
2022/01/11 07:23:21;;;;;;;;;31.67;29.00;;;;;2.32;78.97;102491.28;5140111;27;45297;-78
2022/01/11 07:25:46;;;;;;;;;44.67;38.00;;;;;2.34;78.78;102487.13;5140072;27;45243;-77
2022/01/11 07:28:15;;;;;;;;;30.00;27.00;;;;;2.38;78.66;102486.50;5139906;27;45401;-77
2022/01/11 07:30:41;;;;;;;;;35.67;29.33;;;;;2.50;78.40;102515.06;5139807;27;45382;-77
2022/01/11 07:33:07;;;;;;;;;31.33;30.67;;;;;2.45;78.47;102503.44;5139588;27;45255;-78
2022/01/11 07:35:33;;;;;;;;;37.33;36.33;;;;;2.53;78.63;102512.69;5140278;27;45411;-78
2022/01/11 07:37:58;;;;;;;;;28.00;24.33;;;;;2.64;77.92;102526.41;5139979;27;46086;-79
2022/01/11 07:40:24;;;;;;;;;35.67;28.00;;;;;2.61;77.50;102523.63;5139893;27;45405;-78
2022/01/11 07:42:49;;;;;;;;;31.00;25.00;;;;;2.58;77.72;102517.38;5135104;27;45483;-78
2022/01/11 07:45:15;;;;;;;;;38.33;34.00;;;;;2.75;77.48;102533.25;5127476;27;45491;-81
2022/01/11 07:47:40;;;;;;;;;42.00;36.33;;;;;2.81;77.47;102536.28;5128457;27;45803;-78
2022/01/11 07:50:07;;;;;;;;;43.33;35.00;;;;;2.70;77.46;102519.94;5127179;27;45433;-77
2022/01/11 07:52:33;;;;;;;;;41.67;34.33;;;;;2.74;77.26;102534.94;5128301;27;45314;-77
2022/01/11 07:54:58;;;;;;;;;37.00;32.00;;;;;2.84;77.53;102539.06;5127578;27;45348;-75
2022/01/11 07:57:24;;;;;;;;;35.33;34.67;;;;;2.59;77.22;102494.88;5108067;27;47182;-77
2022/01/11 07:59:50;;;;;;;;;41.00;31.33;;;;;2.91;77.52;102551.69;5127549;27;45251;-76
2022/01/11 08:02:17;;;;;;;;;43.33;35.33;;;;;2.81;77.23;102518.94;5128106;27;45412;-78
2022/01/11 08:04:42;;;;;;;;;43.33;37.00;;;;;2.98;77.09;102546.13;5127966;27;45651;-76
2022/01/11 08:07:10;;;;;;;;;40.00;30.33;;;;;2.99;76.99;102547.03;5126719;27;45990;-76
2022/01/11 08:09:35;;;;;;;;;30.67;26.33;;;;;2.84;76.64;102513.94;5127551;27;45551;-77
2022/01/11 08:12:01;;;;;;;;;52.00;40.00;;;;;2.94;76.57;102544.09;5128406;27;45412;-80
2022/01/11 08:14:26;;;;;;;;;46.33;32.67;;;;;2.87;77.12;102526.25;5110446;27;45521;-80
2022/01/11 08:16:52;;;;;;;;;32.67;32.67;;;;;2.96;76.73;102554.59;5110759;27;48310;-81
2022/01/11 08:19:24;;;;;;;;;28.33;20.33;;;;;2.75;77.13;102531.53;5111771;27;45346;-79
2022/01/11 08:21:50;;;;;;;;;37.67;32.67;;;;;2.88;76.99;102567.09;5131435;27;45546;-79
2022/01/11 08:24:15;;;;;;;;;31.67;26.00;;;;;2.73;76.50;102546.16;5114328;27;45568;-79
2022/01/11 08:26:41;;;;;;;;;38.67;33.33;;;;;2.82;76.39;102549.38;5131186;27;45554;-77
2022/01/11 08:29:06;;;;;;;;;43.67;37.33;;;;;2.92;77.12;102581.25;5131187;27;45388;-79
2022/01/11 08:31:31;;;;;;;;;41.33;35.00;;;;;2.82;77.30;102570.22;5131234;27;45324;-79
2022/01/11 08:33:57;;;;;;;;;33.33;27.33;;;;;2.67;76.87;102532.72;5131265;27;45206;-78
2022/01/11 08:36:22;;;;;;;;;40.33;32.33;;;;;2.89;76.50;102566.31;5131124;27;45360;-76
2022/01/11 08:38:48;;;;;;;;;44.00;35.00;;;;;2.77;76.91;102545.56;5129643;27;45208;-77
2022/01/11 08:41:13;;;;;;;;;46.00;39.33;;;;;2.86;76.65;102564.38;5130612;27;45487;-77
2022/01/11 08:43:39;;;;;;;;;31.67;28.00;;;;;2.67;76.44;102531.81;5130591;27;45562;-77
2022/01/11 08:46:05;;;;;;;;;30.33;28.33;;;;;3.00;77.11;102585.25;5129554;27;45590;-77
2022/01/11 08:48:31;;;;;;;;;52.67;40.33;;;;;2.75;76.33;102534.16;5130481;27;45528;-77
2022/01/11 08:50:56;;;;;;;;;41.67;36.00;;;;;2.70;77.23;102530.34;5130294;27;45536;-78
2022/01/11 08:53:22;;;;;;;;;45.67;40.67;;;;;3.01;77.17;102585.38;5130995;27;45441;-78
2022/01/11 08:55:51;;;;;;;;;42.67;38.00;;;;;2.73;77.15;102527.03;5113824;27;45627;-79
2022/01/11 08:58:19;;;;;;;;;49.00;40.00;;;;;3.02;76.44;102586.25;5131341;27;45462;-77
2022/01/11 09:00:46;;;;;;;;;35.00;31.67;;;;;2.95;76.25;102584.03;5111941;27;45513;-78
2022/01/11 09:03:12;;;;;;;;;41.67;37.33;;;;;2.94;77.05;102583.13;5112342;27;45420;-77
2022/01/11 09:05:37;;;;;;;;;54.33;40.67;;;;;2.86;76.52;102574.81;5112162;27;46315;-78
2022/01/11 09:08:04;;;;;;;;;43.33;34.67;;;;;2.95;77.09;102576.22;5130611;27;45570;-78
2022/01/11 09:10:29;;;;;;;;;40.67;31.33;;;;;2.91;76.46;102556.91;5130679;27;45341;-78
2022/01/11 09:12:55;;;;;;;;;50.00;38.00;;;;;3.00;75.96;102560.13;5130297;27;45337;-78
2022/01/11 09:15:20;;;;;;;;;45.67;41.33;;;;;3.26;75.89;102600.03;5130276;27;45511;-75
2022/01/11 09:17:46;;;;;;;;;44.67;40.33;;;;;3.28;75.75;102601.03;5130600;27;45328;-78
2022/01/11 09:20:12;;;;;;;;;48.67;43.33;;;;;3.25;74.95;102606.91;5130821;27;45296;-77
2022/01/11 09:22:39;;;;;;;;;57.00;44.33;;;;;2.95;75.17;102566.72;5130722;27;45642;-78
2022/01/11 09:25:04;;;;;;;;;40.33;38.33;;;;;3.26;75.66;102600.03;5130299;27;45398;-78
2022/01/11 09:27:30;;;;;;;;;62.67;41.00;;;;;3.22;75.94;102585.88;5130110;27;45344;-78
2022/01/11 09:29:55;;;;;;;;;43.00;37.67;;;;;3.32;75.45;102616.94;5128939;27;45471;-78
2022/01/11 09:32:21;;;;;;;;;56.00;44.00;;;;;3.28;74.91;102607.16;5130323;27;45505;-78
2022/01/11 09:34:47;;;;;;;;;43.00;35.00;;;;;3.33;74.80;102633.47;5130087;27;46342;-79
2022/01/11 09:37:13;;;;;;;;;46.67;36.67;;;;;3.18;74.52;102607.34;5127980;27;45442;-79
2022/01/11 09:39:39;;;;;;;;;37.33;34.00;;;;;3.30;74.83;102628.09;5129883;27;45402;-78
2022/01/11 09:42:06;;;;;;;;;48.00;41.67;;;;;3.01;75.41;102579.25;5124960;27;45544;-77
2022/01/11 09:44:34;;;;;;;;;53.67;44.67;;;;;3.04;75.23;102589.88;5120498;27;45429;-78
2022/01/11 09:47:00;;;;;;;;;41.67;38.00;;;;;3.32;75.33;102626.47;5120750;27;45321;-79
2022/01/11 09:49:25;;;;;;;;;59.33;46.67;;;;;3.30;74.90;102615.06;5120485;27;45237;-80
2022/01/11 09:51:52;;;;;;;;;51.67;42.33;;;;;3.36;75.40;102618.97;5120726;27;45254;-77
2022/01/11 09:54:21;;;;;;;;;59.33;44.67;;;;;3.24;75.35;102591.19;5120491;27;45377;-77
2022/01/11 09:56:47;;;;;;;;;53.33;43.00;;;;;3.34;75.15;102612.75;5120454;27;45253;-77
2022/01/11 09:59:14;;;;;;;;;44.00;34.33;;;;;3.21;75.27;102625.75;5120777;27;45246;-77
2022/01/11 10:01:39;;;;;;;;;44.33;41.00;;;;;2.86;75.44;102586.91;5120306;27;45234;-77
2022/01/11 10:04:11;;;;;;;;;44.00;36.33;;;;;2.88;76.47;102613.03;5120145;27;45410;-77
2022/01/11 10:06:41;;;;;;;;;39.33;36.33;;;;;2.46;76.16;102524.34;5120453;27;45435;-77
2022/01/11 10:09:08;;;;;;;;;54.33;43.00;;;;;3.24;75.67;102638.06;5120826;27;45240;-77
2022/01/11 10:11:34;;;;;;;;;33.33;33.33;;;;;3.25;75.07;102629.47;5120586;27;45423;-77
2022/01/11 10:14:16;;;;;;;;;47.67;43.00;;;;;3.23;74.74;102631.06;5120131;27;45861;-78
2022/01/11 10:16:42;;;;;;;;;60.67;40.33;;;;;3.24;75.40;102644.19;5119960;27;45404;-77
2022/01/11 10:19:19;;;;;;;;;49.00;39.00;;;;;3.17;75.15;102649.81;5119893;27;45307;-77
2022/01/11 10:21:45;;;;;;;;;46.33;36.67;;;;;3.02;75.83;102609.69;5120399;27;45551;-78
2022/01/11 10:24:32;;;;;;;;;45.67;37.67;;;;;3.42;75.24;102654.94;5101535;27;46341;-76
2022/01/11 10:27:02;;;;;;;;;43.67;36.67;;;;;3.49;75.05;102638.94;5119880;27;45211;-77
2022/01/11 10:29:40;;;;;;;;;44.00;37.67;;;;;3.47;74.75;102619.69;5120317;27;45462;-79
2022/01/11 10:32:35;;;;;;;;;47.33;41.33;;;;;3.78;74.14;102658.19;5120166;27;45443;-77
2022/01/11 10:35:05;;;;;;;;;59.33;44.00;;;;;3.36;74.67;102594.63;5101042;27;46559;-77
2022/01/11 10:37:30;;;;;;;;;42.67;38.33;;;;;3.69;74.61;102659.38;5119764;27;45336;-78
2022/01/11 10:40:10;;;;;;;;;46.33;37.33;;;;;3.68;73.67;102657.56;5120137;27;45377;-77
2022/01/11 10:42:39;;;;;;;;;47.00;39.67;;;;;3.74;73.67;102664.91;5118824;27;45284;-76
2022/01/11 10:45:06;;;;;;;;;45.67;38.67;;;;;3.60;74.33;102650.94;5119763;27;46194;-77
2022/01/11 10:47:35;;;;;;;;;58.00;44.67;;;;;3.46;74.18;102623.09;5100774;27;45275;-80
2022/01/11 10:50:05;;;;;;;;;57.67;34.33;;;;;3.77;74.12;102665.09;5119871;27;45406;-78
2022/01/11 10:52:32;;;;;;;;;51.67;37.33;;;;;3.77;73.86;102656.38;5120022;27;45206;-82
2022/01/11 10:54:58;;;;;;;;;53.33;41.67;;;;;3.80;73.77;102646.16;5119755;27;45337;-77
2022/01/11 10:57:30;;;;;;;;;52.33;40.00;;;;;4.05;73.35;102659.06;5119670;27;45411;-77
2022/01/11 11:00:07;;;;;;;;;32.67;32.33;;;;;4.16;72.84;102655.44;5119718;27;45226;-79
2022/01/11 11:02:33;;;;;;;;;61.00;40.33;;;;;4.06;72.47;102633.09;5119430;27;45265;-78
2022/01/11 11:05:13;;;;;;;;;45.33;39.67;;;;;4.13;72.12;102645.72;5119087;27;45530;-78
2022/01/11 11:07:39;;;;;;;;;49.33;37.00;;;;;4.14;71.86;102667.50;5119770;27;45265;-80
2022/01/11 11:10:05;;;;;;;;;51.67;38.33;;;;;3.89;73.01;102624.19;5119634;27;45216;-81
2022/01/11 11:12:31;;;;;;;;;45.33;38.33;;;;;4.08;71.97;102656.66;5119614;27;45248;-77
2022/01/11 11:14:57;;;;;;;;;51.00;39.33;;;;;3.74;73.04;102604.97;5119376;27;46323;-81
2022/01/11 11:17:35;;;;;;;;;46.33;40.33;;;;;3.98;72.77;102618.66;5119320;27;45413;-79